createdAt,value
2023-02-05T00:02:41.339Z,101746.28
2023-02-05T00:07:33.430Z,101741.56
2023-02-05T00:12:25.251Z,101741.47
2023-02-05T00:17:16.891Z,101747.50
2023-02-05T00:22:08.581Z,101765.03
2023-02-05T00:27:00.257Z,101755.91
2023-02-05T00:31:53.061Z,101767.50
2023-02-05T00:36:45.090Z,101769.34
2023-02-05T00:41:37.204Z,101800.03
2023-02-05T00:46:28.890Z,101764.88
2023-02-05T00:51:20.634Z,101782.63
2023-02-05T00:56:12.392Z,101766.16
2023-02-05T01:01:04.679Z,101784.25
2023-02-05T01:05:57.072Z,101753.94
2023-02-05T01:10:50.762Z,101750.81
2023-02-05T01:15:42.614Z,101770.84
2023-02-05T01:20:37.836Z,101765.25
2023-02-05T01:25:29.515Z,101761.84
2023-02-05T01:30:21.163Z,101734.50
2023-02-05T01:35:12.863Z,101754.91
2023-02-05T01:40:05.508Z,101783.59
2023-02-05T01:45:21.851Z,101812.91
2023-02-05T01:50:14.324Z,101823.19
2023-02-05T01:55:08.051Z,101853.09
2023-02-05T01:59:59.858Z,101866.75
2023-02-05T02:04:55.511Z,101871.47
2023-02-05T02:09:48.652Z,101877.34
2023-02-05T02:14:44.198Z,101916.28
2023-02-05T02:19:45.676Z,101928.09
2023-02-05T02:24:58.607Z,101927.47
2023-02-05T02:30:06.970Z,101936.25
2023-02-05T02:35:07.684Z,101942.56
2023-02-05T02:40:08.352Z,101938.53
2023-02-05T02:45:02.722Z,101956.81
2023-02-05T02:50:02.153Z,101959.50
2023-02-05T02:54:57.879Z,101949.09
2023-02-05T02:59:53.301Z,101944.69
2023-02-05T03:04:55.087Z,101963.72
2023-02-05T03:09:50.933Z,101979.94
2023-02-05T03:14:43.017Z,101970.91
2023-02-05T03:19:34.855Z,101982.09
2023-02-05T03:24:26.862Z,101985.75
2023-02-05T03:29:27.137Z,101993.06
2023-02-05T03:34:45.344Z,102005.22
2023-02-05T03:39:46.253Z,102025.19
2023-02-05T03:44:43.732Z,102023.38
2023-02-05T03:49:52.428Z,102009.22
2023-02-05T03:54:50.646Z,102018.34
2023-02-05T03:59:43.769Z,102012.47
2023-02-05T04:04:35.485Z,101985.13
2023-02-05T04:09:27.291Z,101999.63
2023-02-05T04:14:20.274Z,102014.31
2023-02-05T04:19:12.054Z,102015.38
2023-02-05T04:24:04.106Z,102010.13
2023-02-05T04:28:55.952Z,102009.28
2023-02-05T04:33:47.659Z,102042.41
2023-02-05T04:38:39.475Z,102055.41
2023-02-05T04:43:31.206Z,102059.06
2023-02-05T04:48:23.217Z,102062.81
2023-02-05T04:53:14.955Z,102061.31
2023-02-05T04:58:07.125Z,102082.34
2023-02-05T05:02:58.902Z,102089.94
2023-02-05T05:07:50.579Z,102103.44
2023-02-05T05:12:42.934Z,102094.88
2023-02-05T05:17:35.539Z,102094.13
2023-02-05T05:22:27.337Z,102102.38
2023-02-05T05:27:19.262Z,102106.97
2023-02-05T05:32:11.270Z,102111.47
2023-02-05T05:37:02.946Z,102115.22
2023-02-05T05:42:13.342Z,102122.53
2023-02-05T05:47:05.085Z,102138.06
2023-02-05T05:51:56.888Z,102162.38
2023-02-05T05:56:49.747Z,102178.66
2023-02-05T06:01:41.537Z,102157.44
2023-02-05T06:06:33.398Z,102170.91
2023-02-05T06:11:25.102Z,102172.94
2023-02-05T06:16:17.225Z,102161.78
2023-02-05T06:21:09.916Z,102173.34
2023-02-05T06:26:01.751Z,102198.41
2023-02-05T06:30:53.595Z,102201.69
2023-02-05T06:35:45.472Z,102191.31
2023-02-05T06:40:37.230Z,102218.91
2023-02-05T06:45:30.593Z,102216.63
2023-02-05T06:50:23.208Z,102222.19
2023-02-05T06:55:15.120Z,102235.69
2023-02-05T07:00:07.590Z,102239.41
2023-02-05T07:04:59.480Z,102239.59
2023-02-05T07:09:51.632Z,102246.13
2023-02-05T07:14:43.716Z,102236.56
2023-02-05T07:19:37.160Z,102254.75
2023-02-05T07:24:29.143Z,102251.47
2023-02-05T07:29:20.941Z,102259.59
2023-02-05T07:34:12.797Z,102267.91
2023-02-05T07:39:04.603Z,102268.31
2023-02-05T07:43:56.345Z,102282.25
2023-02-05T07:48:48.811Z,102287.69
2023-02-05T07:53:40.591Z,102275.88
2023-02-05T07:58:32.397Z,102301.72
2023-02-05T08:03:24.142Z,102292.28
2023-02-05T08:08:15.999Z,102316.44
2023-02-05T08:13:07.754Z,102314.72
2023-02-05T08:17:59.497Z,102292.47
2023-02-05T08:22:51.296Z,102306.50
2023-02-05T08:27:44.141Z,102308.63
2023-02-05T08:32:35.958Z,102297.44
2023-02-05T08:37:28.287Z,102276.31
2023-02-05T08:42:20.015Z,102266.47
2023-02-05T08:47:12.001Z,102282.81
2023-02-05T08:52:03.852Z,102284.94
2023-02-05T08:56:55.545Z,102285.94
2023-02-05T09:01:47.484Z,102281.16
2023-02-05T09:06:39.518Z,102298.00
2023-02-05T09:11:31.355Z,102288.00
2023-02-05T09:16:23.585Z,102276.34
2023-02-05T09:21:15.618Z,102266.44
2023-02-05T09:26:09.393Z,102276.00
2023-02-05T09:31:12.704Z,102249.91
2023-02-05T09:36:09.608Z,102241.28
2023-02-05T09:41:30.928Z,102234.50
2023-02-05T09:46:40.931Z,102211.84
2023-02-05T09:51:40.957Z,102184.50
2023-02-05T09:56:34.864Z,102199.38
2023-02-05T10:01:41.718Z,102219.06
2023-02-05T10:07:14.980Z,102216.41
2023-02-05T10:12:38.327Z,102251.97
2023-02-05T10:18:21.300Z,102245.03
2023-02-05T10:23:17.895Z,102251.41
2023-02-05T10:28:40.994Z,102230.13
2023-02-05T10:33:50.554Z,102242.66
2023-02-05T10:38:44.829Z,102265.03
2023-02-05T10:43:44.622Z,102242.31
2023-02-05T10:48:53.077Z,102275.06
2023-02-05T10:53:44.883Z,102263.66
2023-02-05T10:58:57.827Z,102265.50
2023-02-05T11:03:59.601Z,102250.56
2023-02-05T11:08:51.865Z,102247.22
2023-02-05T11:13:51.766Z,102235.63
2023-02-05T11:18:47.147Z,102246.19
2023-02-05T11:23:40.184Z,102242.44
2023-02-05T11:28:36.897Z,102257.00
2023-02-05T11:33:31.456Z,102254.25
2023-02-05T11:38:34.087Z,102264.81
2023-02-05T11:43:28.114Z,102273.03
2023-02-05T11:48:41.339Z,102275.13
2023-02-05T11:53:34.875Z,102273.03
2023-02-05T11:58:36.964Z,102269.41
2023-02-05T12:03:32.553Z,102277.38
2023-02-05T12:08:44.902Z,102274.13
2023-02-05T12:14:13.963Z,102282.13
2023-02-05T12:19:15.783Z,102279.97
2023-02-05T12:24:32.146Z,102273.97
2023-02-05T12:29:49.224Z,102271.13
2023-02-05T12:35:00.159Z,102265.63
2023-02-05T12:40:01.339Z,102262.63
2023-02-05T12:44:56.174Z,102272.59
2023-02-05T12:50:12.604Z,102260.69
2023-02-05T12:56:01.893Z,102249.97
2023-02-05T13:00:59.969Z,102230.03
2023-02-05T13:05:55.354Z,102210.50
2023-02-05T13:11:13.218Z,102189.66
2023-02-05T13:16:11.789Z,102192.13
2023-02-05T13:21:29.182Z,102187.47
2023-02-05T13:26:50.875Z,102192.59
2023-02-05T13:32:14.690Z,102200.78
2023-02-05T13:37:38.642Z,102183.88
2023-02-05T13:42:51.124Z,102168.47
2023-02-05T13:48:04.831Z,102150.78
2023-02-05T13:53:06.339Z,102137.75
2023-02-05T13:58:24.910Z,102132.09
2023-02-05T14:03:39.295Z,102125.88
2023-02-05T14:08:37.724Z,102121.34
2023-02-05T14:13:34.762Z,102115.41
2023-02-05T14:18:43.380Z,102111.03
2023-02-05T14:23:55.950Z,102111.78
2023-02-05T14:28:50.321Z,102094.16
2023-02-05T14:33:44.406Z,102074.78
2023-02-05T14:38:38.502Z,102069.66
2023-02-05T14:43:38.363Z,102089.78
2023-02-05T14:48:34.598Z,102087.66
2023-02-05T14:53:26.851Z,102085.41
2023-02-05T14:58:31.158Z,102086.28
2023-02-05T15:03:34.968Z,102100.94
2023-02-05T15:08:35.554Z,102087.44
2023-02-05T15:13:27.538Z,102100.38
2023-02-05T15:18:33.473Z,102091.13
2023-02-05T15:23:38.245Z,102100.81
2023-02-05T15:28:39.696Z,102122.16
2023-02-05T15:34:10.460Z,102113.75
2023-02-05T15:39:11.100Z,102109.94
2023-02-05T15:44:04.271Z,102115.34
2023-02-05T15:48:56.837Z,102095.53
2023-02-05T15:53:50.426Z,102094.28
2023-02-05T15:58:59.363Z,102095.00
2023-02-05T16:03:51.229Z,102089.88
2023-02-05T16:08:48.325Z,102073.06
2023-02-05T16:13:40.075Z,102082.19
2023-02-05T16:18:49.467Z,102088.00
2023-02-05T16:23:49.561Z,102074.34
2023-02-05T16:29:02.455Z,102062.50
2023-02-05T16:33:56.832Z,102056.69
2023-02-05T16:38:54.357Z,102091.59
2023-02-05T16:43:46.294Z,102096.69
2023-02-05T16:48:47.317Z,102129.09
2023-02-05T16:53:50.110Z,102138.59
2023-02-05T16:58:48.927Z,102124.50
2023-02-05T17:03:42.020Z,102127.47
2023-02-05T17:08:36.974Z,102127.72
2023-02-05T17:13:41.009Z,102106.81
2023-02-05T17:18:34.255Z,102136.41
2023-02-05T17:23:25.979Z,102135.03
2023-02-05T17:28:21.462Z,102127.63
2023-02-05T17:33:18.434Z,102123.16
2023-02-05T17:38:10.151Z,102108.75
2023-02-05T17:43:01.959Z,102118.22
2023-02-05T17:47:54.068Z,102122.41
2023-02-05T17:52:46.207Z,102118.53
2023-02-05T17:57:38.073Z,102128.84
2023-02-05T18:02:29.823Z,102133.06
2023-02-05T18:07:59.690Z,102139.91
2023-02-05T18:12:52.348Z,102140.78
2023-02-05T18:17:44.276Z,102136.16
2023-02-05T18:22:36.799Z,102140.69
2023-02-05T18:27:28.762Z,102136.06
2023-02-05T18:32:20.586Z,102129.75
2023-02-05T18:37:14.211Z,102148.09
2023-02-05T18:42:06.443Z,102143.44
2023-02-05T18:46:58.468Z,102144.22
2023-02-05T18:51:50.194Z,102148.59
2023-02-05T18:56:42.074Z,102138.22
2023-02-05T19:01:36.548Z,102141.25
2023-02-05T19:06:28.443Z,102127.47
2023-02-05T19:11:24.197Z,102137.34
2023-02-05T19:16:17.720Z,102120.84
2023-02-05T19:21:12.370Z,102117.66
2023-02-05T19:26:25.257Z,102105.78
2023-02-05T19:31:17.110Z,102112.50
2023-02-05T19:36:10.800Z,102092.47
2023-02-05T19:41:07.158Z,102100.91
2023-02-05T19:46:06.549Z,102078.28
2023-02-05T19:51:10.792Z,102076.44
2023-02-05T19:56:07.360Z,102066.66
2023-02-05T20:00:59.221Z,102066.66
2023-02-05T20:05:50.926Z,102070.09
2023-02-05T20:10:42.734Z,102061.78
2023-02-05T20:15:36.407Z,102049.06
2023-02-05T20:20:33.575Z,102035.16
2023-02-05T20:25:25.757Z,102021.59
2023-02-05T20:30:39.012Z,102044.69
2023-02-05T20:35:30.937Z,102045.66
2023-02-05T20:40:22.860Z,102042.38
2023-02-05T20:45:15.620Z,102034.31
2023-02-05T20:50:08.563Z,102025.59
2023-02-05T20:55:04.017Z,102030.97
2023-02-05T20:59:55.894Z,102020.97
2023-02-05T21:04:47.793Z,102023.41
2023-02-05T21:09:39.587Z,102030.31
2023-02-05T21:14:31.655Z,102017.38
2023-02-05T21:19:24.390Z,102015.41
2023-02-05T21:24:16.442Z,102009.16
2023-02-05T21:29:11.482Z,102028.44
2023-02-05T21:34:04.806Z,102041.22
2023-02-05T21:38:57.001Z,102051.34
2023-02-05T21:43:54.521Z,102045.69
2023-02-05T21:48:53.802Z,102033.19
2023-02-05T21:53:48.265Z,102032.16
2023-02-05T21:58:43.198Z,102026.75
2023-02-05T22:03:34.921Z,102040.38
2023-02-05T22:08:26.914Z,102030.13
2023-02-05T22:13:21.162Z,102031.53
2023-02-05T22:18:13.025Z,102041.97
2023-02-05T22:23:04.757Z,102039.06
2023-02-05T22:27:56.697Z,102052.06
2023-02-05T22:32:48.469Z,102054.34
2023-02-05T22:37:41.463Z,102060.25
2023-02-05T22:42:34.223Z,102051.25
2023-02-05T22:47:26.110Z,102052.75
2023-02-05T22:52:17.904Z,102057.69
2023-02-05T22:57:09.804Z,102054.59
2023-02-05T23:02:02.554Z,102052.97
2023-02-05T23:06:54.418Z,102039.81
2023-02-05T23:11:46.573Z,102048.25
2023-02-05T23:16:42.537Z,102038.59
2023-02-05T23:21:39.331Z,102032.50
2023-02-05T23:26:33.467Z,102031.66
2023-02-05T23:31:26.581Z,102018.72
2023-02-05T23:36:19.178Z,102011.84
2023-02-05T23:41:12.350Z,102017.31
2023-02-05T23:46:06.769Z,102019.13
2023-02-05T23:50:58.651Z,102021.91
2023-02-05T23:55:52.496Z,102017.63
